Time;durP1;ratioP1;P1;durP2;ratioP2;P2;SDS_P1;SDS_P2;PMS_P1;PMS_P2;Temp;Humidity;BMP_temperature;BMP_pressure;BME280_temperature;BME280_humidity;BME280_pressure;Samples;Min_cycle;Max_cycle;Signal;HPM_P1;HPM_P2
2023/07/30 00:02:28;;;;;;;;;7.75;7.00;;;;;24.13;100.00;98118.78;6090196;28;96943;-69
2023/07/30 00:05:33;;;;;;;;;6.00;5.50;;;;;23.93;100.00;98083.69;6088429;28;96764;-69
2023/07/30 00:08:36;;;;;;;;;6.00;6.00;;;;;24.18;100.00;98126.88;6057975;28;97159;-69
2023/07/30 00:11:40;;;;;;;;;4.60;4.20;;;;;24.17;100.00;98111.50;6061061;28;97366;-69
2023/07/30 00:14:44;;;;;;;;;5.40;5.40;;;;;24.06;100.00;98112.94;6073057;28;98645;-69
2023/07/30 00:17:47;;;;;;;;;7.00;6.00;;;;;24.03;100.00;98097.91;6075348;28;96845;-69
2023/07/30 00:20:51;;;;;;;;;4.00;4.00;;;;;24.18;100.00;98115.88;6088632;28;96558;-69
2023/07/30 00:23:54;;;;;;;;;6.00;5.40;;;;;24.20;100.00;98115.53;6072148;28;98463;-69
2023/07/30 00:26:58;;;;;;;;;5.00;4.00;;;;;24.22;100.00;98113.25;6089647;28;97575;-69
2023/07/30 00:30:01;;;;;;;;;6.25;6.00;;;;;24.24;100.00;98105.47;6072315;28;96933;-69
2023/07/30 00:33:04;;;;;;;;;5.80;5.80;;;;;24.27;100.00;98102.88;6089762;28;96332;-69
2023/07/30 00:36:09;;;;;;;;;6.00;6.00;;;;;24.28;100.00;98106.44;6085110;28;96334;-69
2023/07/30 00:39:14;;;;;;;;;5.60;5.60;;;;;24.31;100.00;98098.31;6065075;28;98473;-69
2023/07/30 00:42:17;;;;;;;;;5.00;4.00;;;;;24.19;100.00;98080.88;6072232;28;96979;-69
2023/07/30 00:45:21;;;;;;;;;6.00;6.00;;;;;24.35;100.00;98112.22;6079358;28;96396;-69
2023/07/30 00:48:25;;;;;;;;;5.00;5.00;;;;;24.34;100.00;98110.59;6090201;28;96522;-69
2023/07/30 00:51:32;;;;;;;;;4.40;4.00;;;;;24.21;100.00;98095.09;6079180;28;98580;-69
2023/07/30 00:54:36;;;;;;;;;4.00;4.00;;;;;24.36;100.00;98125.69;6071129;28;96333;-69
2023/07/30 00:57:40;;;;;;;;;5.00;5.00;;;;;24.38;100.00;98117.91;6088735;28;96439;-69
2023/07/30 01:00:44;;;;;;;;;4.50;4.00;;;;;24.43;100.00;98122.44;6057804;28;98478;-69
2023/07/30 01:03:47;;;;;;;;;5.00;4.00;;;;;24.34;100.00;98113.34;6073284;28;97136;-69
2023/07/30 01:06:52;;;;;;;;;6.00;6.00;;;;;24.38;100.00;98131.69;6056787;28;97142;-69
2023/07/30 01:09:55;;;;;;;;;5.00;5.00;;;;;24.36;100.00;98133.13;6072508;28;96375;-69
2023/07/30 01:13:00;;;;;;;;;5.40;5.40;;;;;24.27;100.00;98138.69;6071719;28;97027;-69
2023/07/30 01:16:06;;;;;;;;;5.20;4.00;;;;;24.22;100.00;98133.34;6089847;28;96422;-69
2023/07/30 01:19:11;;;;;;;;;7.00;6.00;;;;;24.14;100.00;98129.44;6083811;28;96928;-69
2023/07/30 01:22:15;;;;;;;;;5.00;5.00;;;;;24.04;100.00;98135.28;6088935;28;96941;-70
2023/07/30 01:25:22;;;;;;;;;7.40;6.00;;;;;23.94;100.00;98135.66;6054825;28;97445;-69
2023/07/30 01:28:27;;;;;;;;;5.80;5.00;;;;;23.79;100.00;98138.94;6071929;28;96521;-69
2023/07/30 01:31:33;;;;;;;;;4.60;4.60;;;;;23.73;100.00;98137.47;6079929;28;98417;-69
2023/07/30 01:34:37;;;;;;;;;3.00;2.20;;;;;23.68;100.00;98137.63;6073057;28;96355;-69
2023/07/30 01:37:45;;;;;;;;;5.00;5.00;;;;;23.68;100.00;98134.88;6089162;28;96467;-69
2023/07/30 01:40:49;;;;;;;;;7.00;7.00;;;;;23.62;100.00;98128.72;6092477;28;96537;-70
2023/07/30 01:43:52;;;;;;;;;5.20;5.00;;;;;23.56;100.00;98127.28;6091446;28;96379;-69
2023/07/30 01:46:55;;;;;;;;;6.00;5.00;;;;;23.50;100.00;98127.78;6088622;28;96355;-69
2023/07/30 01:49:58;;;;;;;;;5.00;4.60;;;;;23.49;100.00;98128.91;6092393;28;96468;-69
2023/07/30 01:53:03;;;;;;;;;6.00;6.00;;;;;23.52;100.00;98133.75;6074044;28;97513;-69
2023/07/30 01:56:06;;;;;;;;;5.20;5.20;;;;;23.48;100.00;98121.78;6057743;28;98978;-70
2023/07/30 01:59:09;;;;;;;;;5.00;5.00;;;;;23.45;100.00;98128.75;6075480;28;96496;-69
2023/07/30 02:02:13;;;;;;;;;5.00;5.00;;;;;23.45;100.00;98120.50;6088220;28;96931;-69
2023/07/30 02:05:16;;;;;;;;;4.00;4.00;;;;;23.41;100.00;98133.22;6079103;28;96666;-69
2023/07/30 02:08:22;;;;;;;;;5.00;4.60;;;;;23.32;100.00;98126.91;6091434;28;96419;-69
2023/07/30 02:11:25;;;;;;;;;4.00;4.00;;;;;23.35;100.00;98147.47;6059886;28;98556;-69
2023/07/30 02:14:28;;;;;;;;;5.20;5.00;;;;;23.41;100.00;98148.94;6092907;28;97036;-69
2023/07/30 02:17:36;;;;;;;;;5.00;5.00;;;;;23.20;100.00;98124.84;6075756;28;97046;-69
2023/07/30 02:20:39;;;;;;;;;4.25;4.00;;;;;23.24;100.00;98152.50;6090715;28;96491;-69
2023/07/30 02:23:44;;;;;;;;;5.60;5.60;;;;;23.24;100.00;98136.00;6072860;28;97312;-69
2023/07/30 02:26:47;;;;;;;;;6.00;5.00;;;;;23.29;100.00;98125.63;6058675;28;98857;-69
2023/07/30 02:29:50;;;;;;;;;7.00;7.00;;;;;23.31;100.00;98130.81;6091520;28;96995;-69
2023/07/30 02:32:54;;;;;;;;;8.00;7.00;;;;;23.28;100.00;98134.22;6078477;28;96732;-69
2023/07/30 02:35:57;;;;;;;;;7.40;7.00;;;;;23.15;100.00;98126.94;6090562;28;96547;-69
2023/07/30 02:39:02;;;;;;;;;6.20;6.20;;;;;23.22;100.00;98138.25;6086932;28;97159;-69
2023/07/30 02:42:06;;;;;;;;;6.00;5.75;;;;;23.16;100.00;98136.78;6074813;28;96673;-69
2023/07/30 02:45:10;;;;;;;;;7.00;7.00;;;;;23.13;100.00;98135.47;6074663;28;96989;-69
2023/07/30 02:48:13;;;;;;;;;7.00;7.00;;;;;23.15;100.00;98138.75;6090498;28;98077;-69
2023/07/30 02:51:16;;;;;;;;;5.60;5.60;;;;;23.17;100.00;98141.13;6090601;28;96375;-69
2023/07/30 02:54:22;;;;;;;;;6.60;6.00;;;;;23.17;100.00;98152.94;6082592;28;96368;-69
2023/07/30 02:57:25;;;;;;;;;4.00;4.00;;;;;23.20;100.00;98151.50;6055960;28;96697;-69
2023/07/30 03:00:28;;;;;;;;;4.60;4.20;;;;;23.24;100.00;98158.81;6073386;28;97078;-69
2023/07/30 03:03:31;;;;;;;;;4.60;4.60;;;;;23.24;100.00;98158.00;6073850;28;96402;-69
2023/07/30 03:06:34;;;;;;;;;4.00;4.00;;;;;23.25;100.00;98154.91;6073323;28;96887;-69
2023/07/30 03:09:39;;;;;;;;;7.00;7.00;;;;;23.18;100.00;98148.25;6071422;28;96309;-69
2023/07/30 03:12:43;;;;;;;;;4.50;4.50;;;;;23.23;100.00;98159.13;6091844;28;96501;-69
2023/07/30 03:15:46;;;;;;;;;4.00;4.00;;;;;23.23;100.00;98162.69;6042274;28;98951;-69
2023/07/30 03:18:49;;;;;;;;;4.00;4.00;;;;;23.23;100.00;98162.69;6091498;28;96357;-69
2023/07/30 03:21:52;;;;;;;;;5.00;4.00;;;;;23.17;100.00;98169.44;6091533;28;96492;-69
2023/07/30 03:24:57;;;;;;;;;7.00;6.60;;;;;23.19;100.00;98166.38;6090149;28;96827;-70
2023/07/30 03:28:00;;;;;;;;;5.00;5.00;;;;;23.21;100.00;98169.63;6073701;28;99142;-69
2023/07/30 03:31:03;;;;;;;;;4.00;4.00;;;;;23.19;100.00;98167.19;6090634;28;96777;-69
2023/07/30 03:34:07;;;;;;;;;4.00;4.00;;;;;23.21;100.00;98175.91;6086446;28;96574;-70
2023/07/30 03:37:10;;;;;;;;;2.80;2.20;;;;;23.24;100.00;98177.25;6073726;28;98714;-69
2023/07/30 03:40:15;;;;;;;;;5.00;4.00;;;;;23.24;100.00;98182.75;6072595;28;97172;-69
2023/07/30 03:43:19;;;;;;;;;4.80;4.00;;;;;23.19;100.00;98186.44;6073670;28;97664;-69
2023/07/30 03:46:24;;;;;;;;;4.00;4.00;;;;;23.27;100.00;98188.41;6073570;28;96460;-69
2023/07/30 03:49:28;;;;;;;;;6.00;6.00;;;;;23.29;100.00;98205.41;6090658;28;96902;-69
2023/07/30 03:52:31;;;;;;;;;5.50;5.50;;;;;23.28;100.00;98211.22;6057823;28;98539;-69
2023/07/30 03:55:35;;;;;;;;;5.60;5.60;;;;;23.06;100.00;98181.09;6077215;28;98591;-69
2023/07/30 03:58:39;;;;;;;;;5.00;5.00;;;;;23.20;100.00;98201.81;6042394;28;97095;-69
2023/07/30 04:01:42;;;;;;;;;4.00;4.00;;;;;23.19;100.00;98204.88;6071849;28;97342;-70
2023/07/30 04:04:48;;;;;;;;;5.00;4.00;;;;;23.05;100.00;98202.28;6072557;28;96609;-69
2023/07/30 04:07:52;;;;;;;;;5.00;5.00;;;;;23.04;100.00;98205.34;6090576;28;97596;-69
2023/07/30 04:10:57;;;;;;;;;4.00;4.00;;;;;22.86;100.00;98177.00;6077678;28;96931;-69
2023/07/30 04:14:00;;;;;;;;;5.00;5.00;;;;;23.08;100.00;98203.56;6084608;28;96362;-69
2023/07/30 04:17:04;;;;;;;;;6.40;6.00;;;;;23.10;100.00;98215.06;6089201;28;96984;-69
2023/07/30 04:20:09;;;;;;;;;5.00;5.00;;;;;23.12;100.00;98215.53;6088405;28;96417;-70
2023/07/30 04:23:12;;;;;;;;;6.00;6.00;;;;;23.16;100.00;98219.28;6088487;28;96355;-69
2023/07/30 04:26:18;;;;;;;;;5.20;5.20;;;;;23.17;100.00;98223.63;6056663;28;99512;-69
2023/07/30 04:29:21;;;;;;;;;6.00;5.00;;;;;23.23;100.00;98220.41;6087196;28;96425;-69
2023/07/30 04:32:25;;;;;;;;;6.50;6.00;;;;;23.20;100.00;98229.31;6070512;28;96866;-70
2023/07/30 04:35:29;;;;;;;;;4.25;4.25;;;;;23.24;100.00;98240.50;6056341;28;97253;-70
2023/07/30 04:38:32;;;;;;;;;6.80;6.00;;;;;23.35;100.00;98246.50;6087000;28;96959;-69
2023/07/30 04:41:37;;;;;;;;;6.00;6.00;;;;;23.45;100.00;98258.06;6069849;28;96436;-69
2023/07/30 04:44:40;;;;;;;;;4.80;4.80;;;;;23.49;100.00;98253.53;6070354;28;96562;-69
2023/07/30 04:47:48;;;;;;;;;5.75;5.75;;;;;23.60;100.00;98249.31;6084138;28;96418;-70
2023/07/30 04:50:51;;;;;;;;;5.00;5.00;;;;;23.70;100.00;98245.47;6086092;28;96589;-69
2023/07/30 04:53:55;;;;;;;;;4.60;4.60;;;;;23.81;100.00;98248.69;6053584;28;97168;-69
2023/07/30 04:56:59;;;;;;;;;5.25;5.25;;;;;23.84;100.00;98245.31;6065969;28;96573;-70
2023/07/30 05:00:04;;;;;;;;;6.00;5.00;;;;;23.82;100.00;98248.38;6035317;28;97761;-69
2023/07/30 05:03:07;;;;;;;;;5.00;4.40;;;;;23.88;100.00;98260.03;6037920;28;96645;-68
2023/07/30 05:06:10;;;;;;;;;5.80;5.80;;;;;23.93;100.00;98257.13;6040025;28;97838;-68
2023/07/30 05:09:13;;;;;;;;;7.00;6.00;;;;;24.02;100.00;98260.69;6037072;28;96437;-68
2023/07/30 05:12:18;;;;;;;;;8.00;6.60;;;;;24.02;100.00;98267.00;6039840;28;98666;-68
2023/07/30 05:15:21;;;;;;;;;3.00;3.00;;;;;24.15;100.00;98276.22;6045677;28;96310;-69
2023/07/30 05:18:24;;;;;;;;;5.60;5.60;;;;;24.24;100.00;98282.56;6040225;28;96742;-68
2023/07/30 05:21:27;;;;;;;;;6.00;5.00;;;;;24.23;100.00;98282.91;6044599;28;98624;-68
2023/07/30 05:24:31;;;;;;;;;4.00;4.00;;;;;24.36;100.00;98290.97;6045275;28;96620;-68
2023/07/30 05:27:36;;;;;;;;;4.80;3.80;;;;;24.46;100.00;98276.06;6042283;28;98707;-68
2023/07/30 05:30:39;;;;;;;;;4.00;4.00;;;;;24.58;100.00;98287.22;6041286;28;96869;-68
2023/07/30 05:33:42;;;;;;;;;4.00;4.00;;;;;24.69;100.00;98290.41;6045307;28;96410;-69
2023/07/30 05:36:46;;;;;;;;;4.00;4.00;;;;;24.78;100.00;98296.72;6040789;28;97500;-69
2023/07/30 05:39:49;;;;;;;;;4.00;4.00;;;;;24.87;100.00;98287.34;6027964;28;99313;-69
2023/07/30 05:42:54;;;;;;;;;3.00;3.00;;;;;25.09;100.00;98280.75;6043432;28;96348;-69
2023/07/30 05:45:57;;;;;;;;;2.00;2.00;;;;;25.18;100.00;98251.16;6040786;28;97853;-69
2023/07/30 05:49:01;;;;;;;;;3.50;3.00;;;;;25.28;100.00;98294.13;6036021;28;99127;-69
2023/07/30 05:52:05;;;;;;;;;4.00;4.00;;;;;25.35;100.00;98275.09;6039497;28;96828;-69
2023/07/30 05:55:09;;;;;;;;;4.00;4.00;;;;;25.60;100.00;98296.28;6044427;28;99078;-68
2023/07/30 05:58:13;;;;;;;;;4.00;4.00;;;;;25.51;100.00;98289.16;6087915;28;96851;-69
2023/07/30 06:01:17;;;;;;;;;4.00;4.00;;;;;25.48;100.00;98296.13;6089365;28;96558;-69
2023/07/30 06:04:20;;;;;;;;;4.40;4.40;;;;;25.54;100.00;98296.75;6088838;28;96677;-69
2023/07/30 06:07:23;;;;;;;;;3.00;2.25;;;;;25.57;100.00;98293.34;6074060;28;96381;-69
2023/07/30 06:10:26;;;;;;;;;2.80;2.00;;;;;25.74;100.00;98283.00;6071736;28;97485;-68
2023/07/30 06:13:31;;;;;;;;;4.00;3.00;;;;;25.71;100.00;98288.38;6054825;28;99372;-69
2023/07/30 06:16:35;;;;;;;;;3.00;3.00;;;;;25.79;100.00;98290.28;6085033;28;96544;-69
2023/07/30 06:19:38;;;;;;;;;4.00;4.00;;;;;25.91;100.00;98284.00;6080701;28;97553;-70
2023/07/30 06:22:41;;;;;;;;;3.00;2.50;;;;;25.99;100.00;98294.22;6074508;28;97244;-68
2023/07/30 06:25:51;;;;;;;;;3.00;3.00;;;;;26.00;100.00;98291.09;6073513;28;98260;-68
2023/07/30 06:28:56;;;;;;;;;3.00;3.00;;;;;25.92;100.00;98289.22;6085577;28;97169;-68
2023/07/30 06:31:59;;;;;;;;;6.00;6.00;;;;;26.26;100.00;98283.44;6075511;28;96614;-69
2023/07/30 06:35:03;;;;;;;;;3.60;3.60;;;;;26.55;100.00;98295.50;6090785;28;96385;-69
2023/07/30 06:38:09;;;;;;;;;3.80;3.00;;;;;26.81;100.00;98286.94;6070515;28;96848;-69
2023/07/30 06:41:13;;;;;;;;;4.00;4.00;;;;;26.99;100.00;98289.19;6088741;28;96636;-69
2023/07/30 06:44:18;;;;;;;;;2.60;2.60;;;;;27.24;100.00;98284.50;6089291;28;96423;-69
2023/07/30 06:47:21;;;;;;;;;4.00;3.00;;;;;27.34;100.00;98291.53;6066962;28;96824;-69
2023/07/30 06:50:24;;;;;;;;;5.00;4.00;;;;;27.56;100.00;98291.09;6070460;28;96505;-68
2023/07/30 06:53:27;;;;;;;;;3.00;3.00;;;;;27.73;100.00;98290.03;6085216;28;96677;-69
2023/07/30 06:56:31;;;;;;;;;4.75;4.00;;;;;27.73;100.00;98290.84;6064618;28;100032;-69
2023/07/30 06:59:36;;;;;;;;;4.20;4.20;;;;;27.85;100.00;98284.47;6087483;28;96761;-69
2023/07/30 07:02:39;;;;;;;;;4.40;4.00;;;;;27.87;100.00;98280.19;6086416;28;96944;-69
2023/07/30 07:05:42;;;;;;;;;4.20;3.20;;;;;28.08;100.00;98280.03;6087256;28;96830;-68
2023/07/30 07:08:47;;;;;;;;;4.50;4.00;;;;;28.41;100.00;98274.25;6083970;28;97170;-70
2023/07/30 07:11:50;;;;;;;;;5.00;5.00;;;;;28.59;100.00;98286.66;6090470;28;96598;-69
2023/07/30 07:14:58;;;;;;;;;5.00;4.00;;;;;28.85;100.00;98294.50;6089009;28;96474;-69
2023/07/30 07:18:01;;;;;;;;;3.20;3.20;;;;;28.89;100.00;98292.63;6056794;28;96455;-69
2023/07/30 07:21:05;;;;;;;;;4.75;4.75;;;;;29.10;100.00;98297.94;6073755;28;98556;-69
2023/07/30 07:24:08;;;;;;;;;4.00;4.00;;;;;29.33;100.00;98293.41;6073389;28;97967;-68
2023/07/30 07:27:12;;;;;;;;;3.50;3.00;;;;;29.64;100.00;98293.38;6072625;28;96909;-69
2023/07/30 07:30:16;;;;;;;;;3.20;3.00;;;;;29.74;100.00;98294.78;6090779;28;96356;-69
2023/07/30 07:33:20;;;;;;;;;4.60;4.60;;;;;29.74;100.00;98299.53;6091055;28;96519;-69
2023/07/30 07:36:23;;;;;;;;;3.80;3.00;;;;;29.84;100.00;98312.84;6089717;28;96312;-69
2023/07/30 07:39:26;;;;;;;;;3.60;3.60;;;;;29.93;100.00;98305.97;6088760;28;96979;-69
2023/07/30 07:42:30;;;;;;;;;5.25;5.00;;;;;30.05;100.00;98310.59;6090029;28;96624;-69
2023/07/30 07:45:35;;;;;;;;;3.00;3.00;;;;;30.03;100.00;98310.16;6073199;28;96881;-69
2023/07/30 07:48:39;;;;;;;;;3.00;3.00;;;;;30.12;100.00;98296.84;6087343;28;96571;-69
2023/07/30 07:51:43;;;;;;;;;4.40;3.00;;;;;30.31;100.00;98294.06;6072753;28;96420;-69
2023/07/30 07:54:46;;;;;;;;;4.00;4.00;;;;;30.49;100.00;98288.91;6068776;28;97916;-69
2023/07/30 07:57:49;;;;;;;;;3.00;3.00;;;;;30.43;100.00;98287.56;6079022;28;96806;-69
2023/07/30 08:00:56;;;;;;;;;3.40;3.40;;;;;30.40;100.00;98282.72;6071078;28;96654;-69
2023/07/30 08:04:00;;;;;;;;;5.00;4.40;;;;;30.54;100.00;98283.81;6070566;28;96389;-69
2023/07/30 08:07:04;;;;;;;;;4.00;3.40;;;;;30.63;100.00;98289.19;6068727;28;97172;-69
2023/07/30 08:10:08;;;;;;;;;4.40;4.00;;;;;30.65;100.00;98286.00;6087759;28;96410;-69
2023/07/30 08:13:11;;;;;;;;;3.75;3.00;;;;;30.87;100.00;98299.16;6088455;28;96682;-68
2023/07/30 08:16:16;;;;;;;;;4.00;4.00;;;;;30.97;100.00;98291.00;6084810;28;98309;-68
2023/07/30 08:19:19;;;;;;;;;6.00;5.00;;;;;31.01;100.00;98304.19;6087798;28;97273;-69
2023/07/30 08:22:22;;;;;;;;;3.00;3.00;;;;;30.87;100.00;98311.09;6086436;28;96575;-69
2023/07/30 08:25:26;;;;;;;;;3.00;3.00;;;;;31.04;100.00;98306.25;6084410;28;96601;-69
2023/07/30 08:28:29;;;;;;;;;4.00;3.00;;;;;31.29;100.00;98293.56;6085478;28;96612;-69
2023/07/30 08:31:33;;;;;;;;;3.00;3.00;;;;;31.53;100.00;98292.34;6069126;28;96406;-68
2023/07/30 08:34:37;;;;;;;;;4.00;3.00;;;;;31.54;100.00;98294.75;6084263;28;96669;-69
2023/07/30 08:37:40;;;;;;;;;6.00;6.00;;;;;31.76;100.00;98290.38;6071044;28;97539;-69
2023/07/30 08:40:43;;;;;;;;;5.25;5.00;;;;;32.12;100.00;98289.69;6070103;28;96919;-68
2023/07/30 08:43:48;;;;;;;;;4.00;4.00;;;;;32.49;100.00;98295.34;6087929;28;97489;-69
2023/07/30 08:46:53;;;;;;;;;5.00;4.40;;;;;32.64;100.00;98296.34;6086197;28;97140;-69
2023/07/30 08:49:58;;;;;;;;;5.00;4.80;;;;;32.55;100.00;98296.59;6076403;28;97069;-69
2023/07/30 08:53:03;;;;;;;;;5.00;4.00;;;;;32.76;100.00;98292.47;6072192;28;96667;-69
2023/07/30 08:56:07;;;;;;;;;6.00;5.00;;;;;32.86;100.00;98311.31;6092263;28;96399;-69
2023/07/30 08:59:12;;;;;;;;;3.75;3.75;;;;;32.69;100.00;98311.94;6076384;28;97381;-69
2023/07/30 09:02:21;;;;;;;;;3.00;3.00;;;;;32.75;100.00;98318.78;6076368;28;98592;-69
2023/07/30 09:05:28;;;;;;;;;5.00;4.00;;;;;32.93;100.00;98319.78;6058950;28;97188;-69
2023/07/30 09:08:32;;;;;;;;;4.80;4.00;;;;;33.04;100.00;98315.09;6077409;28;96697;-69
2023/07/30 09:11:35;;;;;;;;;4.00;4.00;;;;;33.17;100.00;98313.66;6093400;28;96464;-69
2023/07/30 09:14:40;;;;;;;;;4.00;4.00;;;;;33.21;100.00;98313.69;6070219;28;96410;-69
2023/07/30 09:17:46;;;;;;;;;4.00;4.00;;;;;33.40;100.00;98319.06;6075954;28;96686;-69
2023/07/30 09:20:49;;;;;;;;;6.00;6.00;;;;;33.34;100.00;98315.81;6094030;28;96845;-69
2023/07/30 09:23:52;;;;;;;;;6.00;6.00;;;;;33.30;100.00;98320.56;6093686;28;96506;-69
2023/07/30 09:26:57;;;;;;;;;5.40;4.80;;;;;33.24;100.00;98284.97;6093493;28;96906;-69
2023/07/30 09:33:42;;;;;;;;;6.00;5.00;;;;;33.40;100.00;98303.09;6107037;28;97654;-65
2023/07/30 09:36:46;;;;;;;;;5.00;5.00;;;;;33.42;100.00;98317.50;6110829;28;96374;-65
2023/07/30 09:39:51;;;;;;;;;6.25;6.00;;;;;33.38;100.00;98304.69;6076911;28;96922;-65
2023/07/30 09:42:58;;;;;;;;;5.75;5.00;;;;;33.22;100.00;98287.38;6101859;28;96769;-65
2023/07/30 09:46:03;;;;;;;;;5.00;5.00;;;;;33.26;100.00;98291.00;6107295;28;96391;-65
2023/07/30 09:49:09;;;;;;;;;5.00;5.00;;;;;32.88;100.00;98289.41;6109063;28;96697;-65
2023/07/30 09:52:14;;;;;;;;;4.60;4.60;;;;;32.81;100.00;98294.91;6106839;28;96615;-65
2023/07/30 09:55:18;;;;;;;;;6.00;6.00;;;;;32.72;100.00;98286.84;6109838;28;97612;-66
2023/07/30 09:58:22;;;;;;;;;5.40;5.00;;;;;32.85;100.00;98290.97;6118311;28;96415;-65
2023/07/30 10:01:29;;;;;;;;;6.40;6.00;;;;;32.66;100.00;98285.59;6089999;28;97665;-69
2023/07/30 10:04:35;;;;;;;;;4.00;4.00;;;;;32.79;100.00;98283.34;6090243;28;96719;-67
2023/07/30 10:07:41;;;;;;;;;4.75;4.75;;;;;32.93;100.00;98287.09;6087955;28;96997;-66
2023/07/30 10:10:45;;;;;;;;;4.00;4.00;;;;;33.04;100.00;98281.56;6082358;28;96648;-65
2023/07/30 10:13:50;;;;;;;;;4.00;4.00;;;;;33.04;100.00;98292.75;6063258;28;96904;-65
2023/07/30 10:16:55;;;;;;;;;4.20;3.80;;;;;33.17;100.00;98284.94;6088769;28;96397;-66
2023/07/30 10:20:20;;;;;;;;;4.00;4.00;;;;;33.53;100.00;98286.81;6090113;28;97785;-64
2023/07/30 10:23:28;;;;;;;;;2.40;2.40;;;;;33.68;100.00;98293.34;6078280;28;96409;-63
2023/07/30 10:26:33;;;;;;;;;4.00;4.00;;;;;33.77;100.00;98291.03;6084648;28;96598;-63
2023/07/30 10:29:38;;;;;;;;;3.00;3.00;;;;;33.67;100.00;98294.53;6079272;28;97707;-63
2023/07/30 10:32:42;;;;;;;;;5.00;4.40;;;;;33.68;99.09;98282.16;6080967;28;96508;-63
2023/07/30 10:35:48;;;;;;;;;4.25;4.25;;;;;33.59;98.60;98288.06;6080017;28;96269;-63
2023/07/30 10:38:52;;;;;;;;;6.00;5.60;;;;;33.64;100.00;98289.69;6095453;28;96627;-63
2023/07/30 10:41:56;;;;;;;;;5.00;5.00;;;;;33.55;98.02;98284.44;6080001;28;96655;-65
2023/07/30 10:44:59;;;;;;;;;4.00;4.00;;;;;33.74;100.00;98283.41;6050874;28;96828;-65
2023/07/30 10:48:05;;;;;;;;;6.00;6.00;;;;;33.71;96.04;98284.19;6075742;28;97190;-65
2023/07/30 10:51:11;;;;;;;;;6.40;6.00;;;;;33.65;95.91;98278.13;6060856;28;96841;-64
2023/07/30 10:54:16;;;;;;;;;4.67;4.67;;;;;33.53;99.30;98280.44;6085811;28;96837;-65
2023/07/30 10:57:20;;;;;;;;;5.00;5.00;;;;;33.46;97.51;98281.19;6058825;28;96529;-65
2023/07/30 11:00:23;;;;;;;;;6.00;5.80;;;;;33.57;99.97;98276.47;6081533;28;96510;-64
2023/07/30 11:03:27;;;;;;;;;6.00;6.00;;;;;33.56;94.06;98282.44;6033908;28;97561;-64
2023/07/30 11:06:32;;;;;;;;;5.60;5.00;;;;;33.64;96.46;98275.72;6050584;28;97302;-65
2023/07/30 11:09:35;;;;;;;;;6.00;6.00;;;;;33.76;92.16;98278.22;6058870;28;96993;-64
2023/07/30 11:12:38;;;;;;;;;6.00;6.00;;;;;33.48;91.57;98276.00;6049268;28;96840;-65
2023/07/30 11:15:43;;;;;;;;;6.00;6.00;;;;;33.52;93.31;98279.63;6053273;28;98183;-65
2023/07/30 11:18:47;;;;;;;;;8.00;6.00;;;;;33.45;92.79;98280.38;6066001;28;96546;-65
2023/07/30 11:21:54;;;;;;;;;6.00;6.00;;;;;33.51;93.95;98276.03;6067425;28;96917;-65
2023/07/30 11:24:58;;;;;;;;;5.40;5.40;;;;;33.59;92.43;98273.28;6067266;28;96517;-65
2023/07/30 11:28:01;;;;;;;;;5.00;5.00;;;;;33.55;97.56;98267.66;6067572;28;97620;-65
2023/07/30 11:31:06;;;;;;;;;6.00;5.40;;;;;33.53;96.99;98259.66;6065647;28;96447;-65
2023/07/30 11:34:10;;;;;;;;;6.00;4.80;;;;;33.39;94.82;98253.97;6071170;28;97021;-65
2023/07/30 11:37:14;;;;;;;;;6.00;6.00;;;;;33.17;95.32;98254.22;6070472;28;96523;-65
2023/07/30 11:40:18;;;;;;;;;4.40;4.20;;;;;32.96;99.00;98261.19;6055294;28;97113;-65
2023/07/30 11:43:22;;;;;;;;;6.00;5.00;;;;;32.54;100.00;98247.56;6066454;28;96397;-65
2023/07/30 11:46:26;;;;;;;;;4.20;4.20;;;;;32.53;100.00;98257.13;6067191;28;98570;-65
2023/07/30 11:49:29;;;;;;;;;5.60;5.60;;;;;32.50;99.73;98259.88;6067179;28;96463;-65
2023/07/30 11:52:34;;;;;;;;;5.40;5.40;;;;;32.40;98.21;98266.91;6062117;28;96332;-65
2023/07/30 11:55:41;;;;;;;;;6.00;6.00;;;;;32.24;98.88;98255.19;6050939;28;98841;-65
2023/07/30 11:58:45;;;;;;;;;3.00;3.00;;;;;32.06;98.49;98262.50;6047393;28;98564;-65
2023/07/30 12:01:48;;;;;;;;;6.00;6.00;;;;;31.71;100.00;98255.25;6064571;28;96741;-65
2023/07/30 12:04:52;;;;;;;;;6.00;5.40;;;;;31.63;100.00;98252.72;6065736;28;96930;-65
2023/07/30 12:08:19;;;;;;;;;6.00;5.50;;;;;31.52;100.00;98260.13;6066103;28;96353;-65
2023/07/30 12:11:22;;;;;;;;;7.00;7.00;;;;;31.44;100.00;98269.53;6046351;28;97269;-65
2023/07/30 12:14:30;;;;;;;;;5.00;5.00;;;;;31.42;100.00;98266.31;6064483;28;97790;-66
2023/07/30 12:17:34;;;;;;;;;5.75;5.25;;;;;31.48;100.00;98264.81;6056746;28;96636;-65
2023/07/30 12:20:37;;;;;;;;;5.60;5.60;;;;;31.51;100.00;98245.38;6074609;28;97377;-65
2023/07/30 12:23:43;;;;;;;;;8.00;8.00;;;;;31.58;100.00;98251.06;6047079;28;98441;-65
2023/07/30 12:26:46;;;;;;;;;7.40;7.00;;;;;31.57;100.00;98254.25;6066565;28;96605;-65
2023/07/30 12:29:49;;;;;;;;;5.60;5.60;;;;;31.54;100.00;98255.75;6048601;28;96671;-65
2023/07/30 12:32:52;;;;;;;;;8.00;7.00;;;;;31.48;100.00;98260.03;6064751;28;96698;-65
2023/07/30 12:35:55;;;;;;;;;5.20;5.00;;;;;31.40;100.00;98249.97;6060711;28;96405;-65
2023/07/30 12:39:00;;;;;;;;;5.00;5.00;;;;;31.39;100.00;98256.72;6068617;28;96403;-65
2023/07/30 12:42:04;;;;;;;;;5.67;5.67;;;;;31.30;100.00;98245.03;6081245;28;96460;-65
2023/07/30 12:45:08;;;;;;;;;5.00;5.00;;;;;31.28;100.00;98237.03;6049986;28;96896;-66
2023/07/30 12:48:11;;;;;;;;;5.00;5.00;;;;;31.28;100.00;98239.03;6050826;28;98992;-66
2023/07/30 12:51:14;;;;;;;;;3.40;3.40;;;;;31.24;100.00;98235.38;6069733;28;96618;-65
2023/07/30 12:54:19;;;;;;;;;3.75;3.75;;;;;31.26;100.00;98238.63;6064434;28;98437;-65
2023/07/30 12:57:22;;;;;;;;;4.00;3.75;;;;;31.21;100.00;98220.25;6073597;28;96884;-66
2023/07/30 13:00:26;;;;;;;;;6.00;5.00;;;;;31.43;100.00;98232.50;6066218;28;97703;-65
2023/07/30 13:03:29;;;;;;;;;6.00;6.00;;;;;31.54;100.00;98235.44;6065337;28;96550;-66
2023/07/30 13:06:33;;;;;;;;;5.00;5.00;;;;;31.62;100.00;98235.19;6057932;28;96998;-65
2023/07/30 13:09:37;;;;;;;;;4.80;4.80;;;;;31.72;100.00;98231.75;6033936;28;96511;-66
2023/07/30 13:12:41;;;;;;;;;5.40;5.40;;;;;31.77;100.00;98233.41;6052681;28;98193;-65
2023/07/30 13:15:44;;;;;;;;;5.00;5.00;;;;;31.74;100.00;98229.41;6066875;28;97517;-65
2023/07/30 13:18:48;;;;;;;;;5.00;4.00;;;;;31.78;100.00;98221.09;6067364;28;99792;-67
2023/07/30 13:21:51;;;;;;;;;4.60;4.60;;;;;31.81;100.00;98225.94;6072713;28;96342;-66
2023/07/30 13:24:56;;;;;;;;;4.00;4.00;;;;;31.73;100.00;98229.78;6088077;28;96617;-66
2023/07/30 13:27:59;;;;;;;;;5.00;4.00;;;;;31.54;100.00;98229.88;6057046;28;97623;-66
2023/07/30 13:31:03;;;;;;;;;3.40;3.00;;;;;31.34;100.00;98212.47;6050022;28;96920;-66
2023/07/30 13:34:06;;;;;;;;;3.00;3.00;;;;;31.49;100.00;98221.84;6073791;28;96463;-65
2023/07/30 13:37:10;;;;;;;;;5.00;5.00;;;;;31.40;100.00;98222.94;6083453;28;96389;-65
2023/07/30 13:40:14;;;;;;;;;6.40;6.40;;;;;31.42;100.00;98223.34;6071349;28;97031;-66
2023/07/30 13:43:17;;;;;;;;;7.00;6.00;;;;;31.52;100.00;98209.97;6064424;28;96504;-66
2023/07/30 13:46:20;;;;;;;;;5.00;5.00;;;;;31.57;100.00;98209.66;6079653;28;96592;-66
2023/07/30 13:49:24;;;;;;;;;5.00;5.00;;;;;31.64;100.00;98215.31;6055815;28;97200;-66
2023/07/30 13:52:27;;;;;;;;;4.00;4.00;;;;;31.69;96.69;98209.44;6073707;28;96607;-66
2023/07/30 13:55:32;;;;;;;;;4.60;4.60;;;;;31.70;95.30;98208.25;6069595;28;97251;-66
2023/07/30 13:58:35;;;;;;;;;5.00;5.00;;;;;31.85;95.88;98203.66;6053956;28;97903;-66
2023/07/30 14:01:39;;;;;;;;;3.00;3.00;;;;;31.90;95.49;98203.34;6055579;28;98480;-65
2023/07/30 14:04:42;;;;;;;;;6.00;6.00;;;;;31.90;92.84;98206.94;6064879;28;99386;-66
2023/07/30 14:07:47;;;;;;;;;5.00;5.00;;;;;31.75;88.73;98211.53;6061939;28;96660;-66
2023/07/30 14:10:52;;;;;;;;;5.00;5.00;;;;;31.64;95.15;98215.31;6074115;28;97906;-66
2023/07/30 14:13:55;;;;;;;;;4.25;4.25;;;;;31.60;93.70;98217.25;6058985;28;97480;-66
2023/07/30 14:16:59;;;;;;;;;4.00;3.50;;;;;31.40;93.31;98213.75;6082916;28;96587;-67
2023/07/30 14:20:02;;;;;;;;;5.00;5.00;;;;;31.24;94.08;98208.34;6069741;28;98671;-66
2023/07/30 14:23:05;;;;;;;;;4.80;4.00;;;;;31.03;98.37;98218.34;6076548;28;96922;-65